createdAt,value
2023-05-10T00:00:01.110Z,63
2023-05-10T00:04:01.296Z,64
2023-05-10T00:08:01.321Z,64
2023-05-10T00:12:01.100Z,64
2023-05-10T00:16:01.125Z,64
2023-05-10T00:20:01.137Z,64
2023-05-10T00:24:01.081Z,64
2023-05-10T00:28:01.906Z,64
2023-05-10T00:32:01.146Z,65
2023-05-10T00:36:01.107Z,65
2023-05-10T00:40:00.950Z,65
2023-05-10T00:44:02.180Z,65
2023-05-10T00:48:02.361Z,65
2023-05-10T00:52:02.204Z,66
2023-05-10T00:56:01.468Z,66
2023-05-10T01:00:01.734Z,66
2023-05-10T01:04:00.994Z,66
2023-05-10T01:08:01.445Z,66
2023-05-10T01:12:01.739Z,66
2023-05-10T01:16:03.281Z,66
2023-05-10T01:20:01.229Z,66
2023-05-10T01:24:09.927Z,67
2023-05-10T01:28:10.716Z,67
2023-05-10T01:32:08.883Z,67
2023-05-10T01:36:06.651Z,67
2023-05-10T01:40:03.320Z,67
2023-05-10T01:44:05.693Z,68
2023-05-10T01:48:06.760Z,68
2023-05-10T01:52:04.242Z,68
2023-05-10T01:56:02.266Z,68
2023-05-10T02:00:03.022Z,68
2023-05-10T02:04:01.919Z,69
2023-05-10T02:08:02.843Z,69
2023-05-10T02:12:03.445Z,69
2023-05-10T02:16:01.820Z,69
2023-05-10T02:20:02.260Z,69
2023-05-10T02:24:02.588Z,69
2023-05-10T02:28:02.499Z,69
2023-05-10T02:32:01.816Z,70
2023-05-10T02:36:01.723Z,70
2023-05-10T02:40:03.704Z,70
2023-05-10T02:44:03.034Z,70
2023-05-10T02:48:01.340Z,70
2023-05-10T02:52:04.985Z,70
2023-05-10T02:56:04.338Z,70
2023-05-10T03:00:01.624Z,70
2023-05-10T03:04:01.060Z,70
2023-05-10T03:08:04.258Z,70
2023-05-10T03:12:04.196Z,71
2023-05-10T03:16:07.981Z,71
2023-05-10T03:20:04.541Z,71
2023-05-10T03:24:05.297Z,71
2023-05-10T03:28:01.339Z,71
2023-05-10T03:32:01.402Z,71
2023-05-10T03:36:00.987Z,71
2023-05-10T03:40:01.145Z,71
2023-05-10T03:44:01.115Z,72
2023-05-10T03:48:01.448Z,72
2023-05-10T03:52:01.184Z,72
2023-05-10T03:56:01.248Z,72
2023-05-10T04:00:01.264Z,72
2023-05-10T04:04:01.246Z,73
2023-05-10T04:08:01.164Z,73
2023-05-10T04:12:02.435Z,74
2023-05-10T04:16:01.219Z,74
2023-05-10T04:20:01.237Z,74
2023-05-10T04:24:01.050Z,75
2023-05-10T04:28:00.974Z,75
2023-05-10T04:32:01.154Z,76
2023-05-10T04:36:01.359Z,76
2023-05-10T04:40:01.285Z,76
2023-05-10T04:44:01.189Z,77
2023-05-10T04:48:01.137Z,77
2023-05-10T04:52:00.966Z,77
2023-05-10T04:56:01.229Z,77
2023-05-10T05:00:01.762Z,77
2023-05-10T05:04:01.594Z,78
2023-05-10T05:08:01.308Z,78
2023-05-10T05:12:01.108Z,79
2023-05-10T05:16:01.480Z,79
2023-05-10T05:20:01.684Z,79
2023-05-10T05:24:01.102Z,81
2023-05-10T05:28:01.691Z,81
2023-05-10T05:32:01.428Z,81
2023-05-10T05:36:01.195Z,81
2023-05-10T05:40:01.872Z,81
2023-05-10T05:44:01.085Z,80
2023-05-10T05:48:01.179Z,80
2023-05-10T05:52:01.626Z,79
2023-05-10T05:56:01.865Z,79
2023-05-10T06:00:01.109Z,79
2023-05-10T06:04:01.415Z,74
2023-05-10T06:08:01.274Z,74
2023-05-10T06:12:01.710Z,72
2023-05-10T06:16:01.379Z,72
2023-05-10T06:20:01.232Z,72
2023-05-10T06:24:01.073Z,69
2023-05-10T06:28:02.107Z,69
2023-05-10T06:32:01.367Z,67
2023-05-10T06:36:01.194Z,67
2023-05-10T06:40:01.925Z,67
2023-05-10T06:44:01.194Z,64
2023-05-10T06:48:01.173Z,64
2023-05-10T06:52:01.046Z,64
2023-05-10T06:56:01.153Z,64
2023-05-10T07:00:01.379Z,64
2023-05-10T07:04:01.013Z,63
2023-05-10T07:08:01.332Z,63
2023-05-10T07:12:02.139Z,59
2023-05-10T07:16:02.374Z,59
2023-05-10T07:20:01.632Z,59
2023-05-10T07:24:01.211Z,56
2023-05-10T07:28:00.989Z,56
2023-05-10T07:32:01.459Z,56
2023-05-10T07:36:01.043Z,56
2023-05-10T07:40:01.078Z,56
2023-05-10T07:44:01.209Z,53
2023-05-10T07:48:01.184Z,53
2023-05-10T07:52:01.016Z,52
2023-05-10T07:56:10.855Z,52
2023-05-10T08:00:01.080Z,52
2023-05-10T08:04:02.102Z,50
2023-05-10T08:08:01.286Z,50
2023-05-10T08:12:01.367Z,50
2023-05-10T08:16:01.055Z,50
2023-05-10T08:20:01.518Z,50
2023-05-10T08:24:01.115Z,49
2023-05-10T08:28:00.993Z,49
2023-05-10T08:32:01.407Z,49
2023-05-10T08:36:01.046Z,49
2023-05-10T08:40:01.101Z,49
2023-05-10T08:44:04.310Z,48
2023-05-10T08:48:02.037Z,48
2023-05-10T08:52:03.498Z,47
2023-05-10T08:56:03.820Z,47
2023-05-10T09:00:01.628Z,47
2023-05-10T09:04:01.219Z,44
2023-05-10T09:08:01.346Z,44
2023-05-10T09:12:01.114Z,45
2023-05-10T09:16:20.229Z,45
2023-05-10T09:20:01.759Z,45
2023-05-10T09:24:02.936Z,41
2023-05-10T09:28:01.202Z,41
2023-05-10T09:32:01.257Z,42
2023-05-10T09:36:07.373Z,42
2023-05-10T09:40:04.250Z,42
2023-05-10T09:44:01.229Z,39
2023-05-10T09:48:02.462Z,39
2023-05-10T09:52:02.804Z,39
2023-05-10T09:56:01.270Z,39
2023-05-10T10:00:01.554Z,39
2023-05-10T10:04:02.981Z,39
2023-05-10T10:08:02.675Z,39
2023-05-10T10:12:01.471Z,38
2023-05-10T10:16:01.621Z,38
2023-05-10T10:20:02.609Z,38
2023-05-10T10:24:01.504Z,37
2023-05-10T10:28:08.611Z,37
2023-05-10T10:32:04.649Z,38
2023-05-10T10:36:02.353Z,38
2023-05-10T10:40:01.009Z,38
2023-05-10T10:44:11.066Z,38
2023-05-10T10:48:10.744Z,38
2023-05-10T10:52:10.773Z,39
2023-05-10T10:56:06.748Z,39
2023-05-10T11:00:10.895Z,39
2023-05-10T11:04:10.870Z,37
2023-05-10T11:08:07.007Z,37
2023-05-10T11:12:08.295Z,37
2023-05-10T11:16:10.654Z,37
2023-05-10T11:20:09.529Z,37
2023-05-10T11:24:05.787Z,37
2023-05-10T11:28:02.685Z,37
2023-05-10T11:32:01.238Z,37
2023-05-10T11:36:00.996Z,37
2023-05-10T11:40:01.245Z,37
2023-05-10T11:44:01.919Z,37
2023-05-10T11:48:01.607Z,37
2023-05-10T11:52:04.784Z,36
2023-05-10T11:56:03.445Z,36
2023-05-10T12:00:03.731Z,36
2023-05-10T12:04:02.016Z,36
2023-05-10T12:08:10.842Z,36
2023-05-10T12:12:02.501Z,36
2023-05-10T12:16:10.727Z,36
2023-05-10T12:20:10.921Z,36
2023-05-10T12:24:02.381Z,35
2023-05-10T12:28:03.371Z,35
2023-05-10T12:32:01.399Z,34
2023-05-10T12:36:01.100Z,34
2023-05-10T12:40:01.037Z,34
2023-05-10T12:44:01.358Z,35
2023-05-10T12:48:01.113Z,35
2023-05-10T12:52:00.995Z,35
2023-05-10T12:56:01.257Z,35
2023-05-10T13:00:01.047Z,35
2023-05-10T13:04:01.033Z,34
2023-05-10T13:08:01.525Z,34
2023-05-10T13:12:01.141Z,34
2023-05-10T13:16:01.004Z,34
2023-05-10T13:20:01.303Z,34
2023-05-10T13:24:01.556Z,33
2023-05-10T13:28:01.026Z,33
2023-05-10T13:32:01.290Z,32
2023-05-10T13:36:01.124Z,32
2023-05-10T13:40:01.247Z,32
2023-05-10T13:44:01.195Z,33
2023-05-10T13:48:01.344Z,33
2023-05-10T13:52:06.792Z,33
2023-05-10T13:56:02.325Z,33
2023-05-10T14:00:01.047Z,33
2023-05-10T14:04:01.357Z,31
2023-05-10T14:08:01.551Z,31
2023-05-10T14:12:01.029Z,32
2023-05-10T14:16:01.188Z,32
2023-05-10T14:20:01.435Z,32
2023-05-10T14:24:01.154Z,33
2023-05-10T14:28:01.153Z,33
2023-05-10T14:32:01.403Z,32
2023-05-10T14:36:03.254Z,32
2023-05-10T14:40:01.243Z,32
2023-05-10T14:44:01.643Z,32
2023-05-10T14:48:04.735Z,32
2023-05-10T14:52:01.023Z,31
2023-05-10T14:56:02.925Z,31
2023-05-10T15:00:01.533Z,31
2023-05-10T15:04:01.855Z,32
2023-05-10T15:08:01.371Z,32
2023-05-10T15:12:01.074Z,30
2023-05-10T15:16:01.319Z,30
2023-05-10T15:20:03.216Z,30
2023-05-10T15:24:01.158Z,28
2023-05-10T15:28:01.543Z,28
2023-05-10T15:32:01.753Z,28
2023-05-10T15:36:01.193Z,28
2023-05-10T15:40:03.816Z,28
2023-05-10T15:44:01.462Z,30
2023-05-10T15:48:01.223Z,30
2023-05-10T15:52:01.072Z,30
2023-05-10T15:56:01.135Z,30
2023-05-10T16:00:01.053Z,30
2023-05-10T16:04:01.271Z,30
2023-05-10T16:08:01.434Z,30
2023-05-10T16:12:01.800Z,29
2023-05-10T16:16:01.050Z,29
2023-05-10T16:20:01.357Z,29
2023-05-10T16:24:02.063Z,31
2023-05-10T16:28:01.084Z,31
2023-05-10T16:32:01.200Z,32
2023-05-10T16:36:01.078Z,32
2023-05-10T16:40:01.265Z,32
2023-05-10T16:44:01.221Z,31
2023-05-10T16:48:01.158Z,31
2023-05-10T16:52:01.034Z,32
2023-05-10T16:56:01.421Z,32
2023-05-10T17:00:01.445Z,32
2023-05-10T17:04:02.110Z,33
2023-05-10T17:08:01.167Z,33
2023-05-10T17:12:02.826Z,33
2023-05-10T17:16:04.740Z,33
2023-05-10T17:20:01.895Z,33
2023-05-10T17:24:01.134Z,34
2023-05-10T17:28:00.973Z,34
2023-05-10T17:32:01.391Z,36
2023-05-10T17:36:01.188Z,36
2023-05-10T17:40:02.595Z,36
2023-05-10T17:44:01.164Z,35
2023-05-10T17:48:01.131Z,35
2023-05-10T17:52:00.982Z,35
2023-05-10T17:56:01.299Z,35
2023-05-10T18:00:03.057Z,35
2023-05-10T18:04:01.410Z,34
2023-05-10T18:08:01.114Z,34
2023-05-10T18:12:01.587Z,36
2023-05-10T18:16:01.001Z,36
2023-05-10T18:20:01.412Z,36
2023-05-10T18:24:01.000Z,36
2023-05-10T18:28:01.083Z,36
2023-05-10T18:32:01.095Z,39
2023-05-10T18:36:01.475Z,39
2023-05-10T18:40:01.183Z,39
2023-05-10T18:44:01.216Z,39
2023-05-10T18:48:01.176Z,39
2023-05-10T18:52:01.165Z,42
2023-05-10T18:56:00.998Z,42
2023-05-10T19:00:01.323Z,42
2023-05-10T19:04:01.101Z,45
2023-05-10T19:08:01.133Z,45
2023-05-10T19:12:01.085Z,48
2023-05-10T19:16:03.050Z,48
2023-05-10T19:20:01.053Z,48
2023-05-10T19:24:01.385Z,49
2023-05-10T19:28:01.027Z,49
2023-05-10T19:32:01.245Z,49
2023-05-10T19:36:01.408Z,49
2023-05-10T19:40:01.116Z,49
2023-05-10T19:44:01.148Z,51
2023-05-10T19:48:01.230Z,51
2023-05-10T19:52:02.110Z,51
2023-05-10T19:56:02.658Z,51
2023-05-10T20:00:01.228Z,51
2023-05-10T20:04:01.288Z,52
2023-05-10T20:08:01.120Z,52
2023-05-10T20:12:01.618Z,53
2023-05-10T20:16:01.622Z,53
2023-05-10T20:20:01.222Z,53
2023-05-10T20:24:01.037Z,53
2023-05-10T20:28:01.237Z,53
2023-05-10T20:32:01.016Z,53
2023-05-10T20:36:01.208Z,53
2023-05-10T20:40:01.015Z,53
2023-05-10T20:44:01.341Z,55
2023-05-10T20:48:01.409Z,55
2023-05-10T20:52:01.572Z,55
2023-05-10T20:56:01.396Z,55
2023-05-10T21:00:01.362Z,55
2023-05-10T21:04:01.044Z,55
2023-05-10T21:08:01.419Z,55
2023-05-10T21:12:02.429Z,55
2023-05-10T21:16:01.112Z,55
2023-05-10T21:20:01.032Z,55
2023-05-10T21:24:01.234Z,57
2023-05-10T21:28:00.986Z,57
2023-05-10T21:32:01.402Z,58
2023-05-10T21:36:01.106Z,58
2023-05-10T21:40:01.321Z,58
2023-05-10T21:44:01.090Z,59
2023-05-10T21:48:01.744Z,59
2023-05-10T21:52:01.175Z,59
2023-05-10T21:56:01.361Z,59
2023-05-10T22:00:01.088Z,59
2023-05-10T22:04:01.224Z,59
2023-05-10T22:08:01.064Z,59
2023-05-10T22:12:01.215Z,60
2023-05-10T22:16:01.001Z,60
2023-05-10T22:20:01.049Z,60
2023-05-10T22:24:01.112Z,61
2023-05-10T22:28:01.022Z,61
2023-05-10T22:32:04.687Z,61
2023-05-10T22:36:01.052Z,61
2023-05-10T22:40:01.314Z,61
2023-05-10T22:44:01.280Z,61
2023-05-10T22:48:04.232Z,61
2023-05-10T22:52:01.469Z,62
2023-05-10T22:56:01.367Z,62
2023-05-10T23:00:02.781Z,62
2023-05-10T23:04:01.004Z,62
2023-05-10T23:08:01.138Z,62
2023-05-10T23:12:02.166Z,63
2023-05-10T23:16:04.006Z,63
2023-05-10T23:20:01.019Z,63
2023-05-10T23:24:01.418Z,63
2023-05-10T23:28:01.165Z,63
2023-05-10T23:32:01.269Z,64
2023-05-10T23:36:01.128Z,64
2023-05-10T23:40:01.348Z,64
2023-05-10T23:44:02.150Z,64
2023-05-10T23:48:01.347Z,64
2023-05-10T23:52:01.136Z,65
2023-05-10T23:56:01.222Z,65
